createdAt,value
2018-01-27T00:01:53.654Z,19.40
2018-01-27T00:04:20.571Z,19.73
2018-01-27T00:06:46.772Z,20.03
2018-01-27T00:09:13.033Z,18.37
2018-01-27T00:11:42.021Z,19.60
2018-01-27T00:14:08.977Z,19.03
2018-01-27T00:16:35.126Z,16.70
2018-01-27T00:19:02.069Z,18.10
2018-01-27T00:21:28.254Z,18.50
2018-01-27T00:23:54.400Z,18.50
2018-01-27T00:26:20.559Z,18.80
2018-01-27T00:28:46.756Z,18.80
2018-01-27T00:31:12.941Z,18.47
2018-01-27T00:33:39.110Z,19.43
2018-01-27T00:36:05.291Z,19.27
2018-01-27T00:38:31.486Z,18.87
2018-01-27T00:40:58.396Z,18.53
2018-01-27T00:43:24.658Z,19.77
2018-01-27T00:45:51.579Z,18.90
2018-01-27T00:48:17.695Z,18.20
2018-01-27T00:50:43.923Z,18.40
2018-01-27T00:53:10.834Z,16.50
2018-01-27T00:55:37.003Z,16.23
2018-01-27T00:58:03.270Z,17.73
2018-01-27T01:00:29.506Z,16.60
2018-01-27T01:02:55.700Z,18.10
2018-01-27T01:05:22.627Z,17.90
2018-01-27T01:07:49.586Z,17.73
2018-01-27T01:10:16.507Z,16.50
2018-01-27T01:12:42.723Z,17.70
2018-01-27T01:15:08.886Z,18.10
2018-01-27T01:17:35.866Z,18.17
2018-01-27T01:20:02.094Z,18.03
2018-01-27T01:22:28.230Z,18.10
2018-01-27T01:24:54.469Z,18.13
2018-01-27T01:27:20.666Z,17.27
2018-01-27T01:29:46.848Z,18.33
2018-01-27T01:32:13.055Z,17.33
2018-01-27T01:34:39.249Z,19.10
2018-01-27T01:37:05.405Z,18.27
2018-01-27T01:39:31.602Z,18.00
2018-01-27T01:41:57.790Z,19.10
2018-01-27T01:44:25.978Z,18.20
2018-01-27T01:46:52.934Z,19.00
2018-01-27T01:49:22.930Z,17.80
2018-01-27T01:51:49.173Z,17.90
2018-01-27T01:54:16.102Z,16.70
2018-01-27T01:56:42.310Z,18.33
2018-01-27T01:59:08.495Z,16.57
2018-01-27T02:01:34.720Z,17.17
2018-01-27T02:04:00.873Z,17.67
2018-01-27T02:06:27.143Z,17.33
2018-01-27T02:08:53.435Z,18.37
2018-01-27T02:11:19.686Z,18.53
2018-01-27T02:13:45.874Z,17.40
2018-01-27T02:16:12.113Z,19.33
2018-01-27T02:18:38.326Z,20.40
2018-01-27T02:21:04.536Z,18.20
2018-01-27T02:23:31.454Z,17.67
2018-01-27T02:25:58.375Z,18.83
2018-01-27T02:28:24.559Z,17.70
2018-01-27T02:30:51.499Z,18.20
2018-01-27T02:33:18.459Z,17.67
2018-01-27T02:35:44.675Z,18.57
2018-01-27T02:38:11.615Z,18.07
2018-01-27T02:40:38.487Z,19.53
2018-01-27T02:43:04.723Z,19.47
2018-01-27T02:45:30.899Z,17.60
2018-01-27T02:47:57.088Z,19.33
2018-01-27T02:50:23.313Z,19.60
2018-01-27T02:52:49.510Z,18.03
2018-01-27T02:55:15.685Z,18.00
2018-01-27T02:57:41.873Z,19.17
2018-01-27T03:00:08.125Z,20.40
2018-01-27T03:02:34.322Z,18.27
2018-01-27T03:05:00.513Z,19.37
2018-01-27T03:07:26.720Z,19.40
2018-01-27T03:09:52.930Z,18.83
2018-01-27T03:12:19.182Z,19.47
2018-01-27T03:14:45.434Z,18.97
2018-01-27T03:17:12.303Z,18.20
2018-01-27T03:19:38.491Z,18.37
2018-01-27T03:22:04.720Z,19.90
2018-01-27T03:24:31.651Z,19.13
2018-01-27T03:26:57.787Z,17.27
2018-01-27T03:29:23.979Z,16.80
2018-01-27T03:31:50.128Z,16.20
2018-01-27T03:34:16.306Z,15.60
2018-01-27T03:36:42.510Z,16.50
2018-01-27T03:39:09.460Z,16.90
2018-01-27T03:41:35.698Z,15.07
2018-01-27T03:44:02.657Z,16.47
2018-01-27T03:46:29.524Z,14.40
2018-01-27T03:48:55.680Z,14.90
2018-01-27T03:51:21.890Z,15.10
2018-01-27T03:53:48.113Z,15.90
2018-01-27T03:56:14.294Z,15.83
2018-01-27T03:58:41.269Z,16.60
2018-01-27T04:01:07.438Z,16.23
2018-01-27T04:03:33.645Z,15.27
2018-01-27T04:05:59.852Z,16.00
2018-01-27T04:08:26.075Z,16.17
2018-01-27T04:10:52.270Z,15.00
2018-01-27T04:13:18.458Z,15.87
2018-01-27T04:15:44.642Z,16.73
2018-01-27T04:18:11.594Z,15.97
2018-01-27T04:20:38.518Z,16.57
2018-01-27T04:23:04.736Z,15.00
2018-01-27T04:25:30.856Z,16.10
2018-01-27T04:27:57.053Z,15.37
2018-01-27T04:30:23.257Z,16.10
2018-01-27T04:32:49.470Z,15.83
2018-01-27T04:35:16.458Z,14.03
2018-01-27T04:37:42.620Z,15.80
2018-01-27T04:40:08.821Z,14.90
2018-01-27T04:42:34.992Z,14.87
2018-01-27T04:45:01.168Z,15.70
2018-01-27T04:47:27.394Z,14.40
2018-01-27T04:49:53.560Z,14.20
2018-01-27T04:52:19.731Z,15.30
2018-01-27T04:54:45.900Z,14.90
2018-01-27T04:57:12.077Z,14.53
2018-01-27T04:59:38.218Z,14.30
2018-01-27T05:02:04.342Z,14.03
2018-01-27T05:04:30.503Z,14.10
2018-01-27T05:06:56.660Z,13.90
2018-01-27T05:09:23.606Z,13.57
2018-01-27T05:11:50.581Z,13.47
2018-01-27T05:14:16.811Z,14.07
2018-01-27T05:16:43.795Z,12.67
2018-01-27T05:19:10.956Z,14.37
2018-01-27T05:21:37.499Z,13.50
2018-01-27T05:24:03.958Z,12.70
2018-01-27T05:26:30.358Z,13.70
2018-01-27T05:28:56.840Z,14.10
2018-01-27T05:31:23.219Z,13.23
2018-01-27T05:33:49.699Z,13.40
2018-01-27T05:36:16.064Z,13.87
2018-01-27T05:38:42.597Z,13.20
2018-01-27T05:41:08.996Z,12.87
2018-01-27T05:43:35.346Z,12.03
2018-01-27T05:57:35.881Z,12.70
2018-01-27T06:00:09.240Z,12.57
2018-01-27T06:05:42.423Z,12.43
2018-01-27T06:28:50.671Z,13.70
2018-01-27T06:34:11.685Z,13.37
2018-01-27T06:39:40.166Z,13.07
2018-01-27T06:45:15.630Z,12.83
2018-01-27T06:47:41.889Z,14.30
2018-01-27T06:50:09.641Z,14.57
2018-01-27T06:52:36.130Z,14.30
2018-01-27T06:55:02.568Z,12.87
2018-01-27T06:57:28.812Z,14.37
2018-01-27T06:59:55.021Z,14.30
2018-01-27T07:02:21.183Z,13.87
2018-01-27T07:04:47.338Z,14.30
2018-01-27T07:07:14.227Z,15.10
2018-01-27T07:09:40.373Z,15.07
2018-01-27T07:12:06.596Z,15.10
2018-01-27T07:14:32.784Z,14.90
2018-01-27T07:16:58.940Z,14.07
2018-01-27T07:19:25.117Z,15.67
2018-01-27T07:21:52.038Z,14.73
2018-01-27T07:24:18.226Z,14.97
2018-01-27T07:26:44.421Z,15.43
2018-01-27T07:29:11.332Z,16.30
2018-01-27T07:31:38.278Z,15.70
2018-01-27T07:34:05.263Z,16.20
2018-01-27T07:36:32.171Z,14.93
2018-01-27T07:38:58.416Z,14.00
2018-01-27T07:41:25.350Z,13.67
2018-01-27T07:43:51.588Z,13.00
2018-01-27T07:46:18.538Z,14.37
2018-01-27T07:48:45.532Z,13.70
2018-01-27T07:51:11.775Z,13.37
2018-01-27T07:53:39.959Z,14.20
2018-01-27T07:56:06.934Z,13.77
2018-01-27T07:58:33.842Z,14.00
2018-01-27T08:01:00.030Z,12.93
2018-01-27T08:03:26.262Z,12.97
2018-01-27T08:05:52.521Z,13.37
2018-01-27T08:08:18.678Z,12.10
2018-01-27T08:10:44.934Z,12.40
2018-01-27T08:13:11.126Z,13.20
2018-01-27T08:15:37.295Z,12.40
2018-01-27T08:18:03.447Z,13.10
2018-01-27T08:20:29.686Z,12.53
2018-01-27T08:23:02.831Z,11.27
2018-01-27T08:25:29.806Z,12.83
2018-01-27T08:27:55.994Z,12.27
2018-01-27T08:30:22.961Z,12.73
2018-01-27T08:32:49.096Z,12.53
2018-01-27T08:35:17.045Z,13.00
2018-01-27T08:37:45.287Z,13.80
2018-01-27T08:40:13.549Z,14.90
2018-01-27T08:42:40.371Z,16.80
2018-01-27T08:45:06.705Z,18.27
2018-01-27T08:47:32.944Z,15.63
2018-01-27T08:49:59.177Z,17.67
2018-01-27T08:52:25.341Z,17.33
2018-01-27T08:54:52.315Z,15.67
2018-01-27T08:57:22.076Z,15.20
2018-01-27T08:59:48.299Z,13.57
2018-01-27T09:02:14.458Z,14.50
2018-01-27T09:04:42.377Z,14.83
2018-01-27T09:07:08.514Z,13.43
2018-01-27T09:09:34.731Z,15.00
2018-01-27T09:12:00.966Z,14.10
2018-01-27T09:14:27.186Z,13.63
2018-01-27T09:16:53.480Z,14.03
2018-01-27T09:19:20.419Z,14.93
2018-01-27T09:21:47.353Z,14.77
2018-01-27T09:24:14.300Z,13.30
2018-01-27T09:26:41.293Z,14.50
2018-01-27T09:29:07.574Z,12.87
2018-01-27T09:31:34.502Z,14.03
2018-01-27T09:34:00.696Z,14.30
2018-01-27T09:36:26.888Z,13.23
2018-01-27T09:38:53.884Z,13.83
2018-01-27T09:41:20.008Z,14.90
2018-01-27T09:43:46.282Z,13.77
2018-01-27T09:46:13.907Z,14.10
2018-01-27T09:48:40.120Z,13.70
2018-01-27T09:51:06.325Z,14.73
2018-01-27T09:53:39.604Z,14.50
2018-01-27T09:56:05.849Z,15.30
2018-01-27T09:58:32.011Z,13.40
2018-01-27T10:00:58.205Z,15.03
2018-01-27T10:03:24.387Z,14.90
2018-01-27T10:05:50.514Z,14.27
2018-01-27T10:08:17.499Z,14.57
2018-01-27T10:10:43.658Z,14.63
2018-01-27T10:13:09.772Z,13.13
2018-01-27T10:15:35.979Z,13.70
2018-01-27T10:18:02.170Z,13.70
2018-01-27T10:20:28.345Z,13.70
2018-01-27T10:22:54.590Z,12.23
2018-01-27T10:25:20.798Z,13.50
2018-01-27T10:27:47.042Z,11.97
2018-01-27T10:30:13.286Z,12.97
2018-01-27T10:32:39.451Z,12.10
2018-01-27T10:35:06.455Z,13.20
2018-01-27T10:37:32.646Z,11.60
2018-01-27T10:39:58.898Z,9.23
2018-01-27T10:42:25.118Z,9.53
2018-01-27T10:44:53.274Z,10.07
2018-01-27T10:47:19.433Z,11.00
2018-01-27T10:49:45.653Z,11.50
2018-01-27T10:52:11.898Z,11.60
2018-01-27T10:54:38.089Z,11.03
2018-01-27T10:57:04.280Z,11.00
2018-01-27T10:59:31.214Z,12.13
2018-01-27T11:01:57.402Z,11.20
2018-01-27T11:04:23.576Z,12.60
2018-01-27T11:06:50.488Z,13.73
2018-01-27T11:09:16.697Z,12.33
2018-01-27T11:11:42.963Z,11.10
2018-01-27T11:14:09.271Z,10.87
2018-01-27T11:16:39.438Z,10.63
2018-01-27T11:19:06.352Z,9.70
2018-01-27T11:21:32.636Z,9.80
2018-01-27T11:23:58.878Z,10.83
2018-01-27T11:26:25.097Z,9.63
2018-01-27T11:28:51.315Z,10.40
2018-01-27T11:31:19.294Z,9.60
2018-01-27T11:33:45.495Z,9.80
2018-01-27T11:36:12.438Z,10.77
2018-01-27T11:38:39.337Z,11.37
2018-01-27T11:41:05.527Z,13.00
2018-01-27T11:43:32.461Z,12.00
2018-01-27T11:45:59.484Z,11.00
2018-01-27T11:48:25.720Z,10.97
2018-01-27T11:50:51.921Z,10.30
2018-01-27T11:53:18.153Z,11.63
2018-01-27T11:55:44.413Z,9.67
2018-01-27T11:58:11.473Z,9.30
2018-01-27T12:00:39.474Z,10.10
2018-01-27T12:03:05.653Z,9.00
2018-01-27T12:05:31.841Z,9.67
2018-01-27T12:07:58.044Z,10.70
2018-01-27T12:10:24.220Z,8.90
2018-01-27T12:12:50.465Z,9.07
2018-01-27T12:15:17.429Z,8.60
2018-01-27T12:17:43.680Z,9.17
2018-01-27T12:20:09.922Z,8.83
2018-01-27T12:22:36.154Z,9.10
2018-01-27T12:25:03.084Z,9.30
2018-01-27T12:27:29.314Z,9.60
2018-01-27T12:29:55.534Z,9.33
2018-01-27T12:32:21.700Z,8.30
2018-01-27T12:34:47.945Z,9.10
2018-01-27T12:37:14.133Z,9.47
2018-01-27T12:39:40.337Z,8.90
2018-01-27T12:42:06.522Z,8.20
2018-01-27T12:44:32.722Z,7.20
2018-01-27T12:46:58.897Z,9.10
2018-01-27T12:49:25.812Z,9.23
2018-01-27T12:51:51.970Z,8.73
2018-01-27T12:54:18.891Z,8.60
2018-01-27T12:56:45.857Z,9.13
2018-01-27T12:59:13.792Z,8.60
2018-01-27T13:01:39.961Z,9.40
2018-01-27T13:04:06.899Z,9.63
2018-01-27T13:06:33.810Z,9.03
2018-01-27T13:09:00.025Z,8.30
2018-01-27T13:11:26.251Z,8.20
2018-01-27T13:13:52.465Z,9.30
2018-01-27T13:16:18.718Z,8.13
2018-01-27T13:18:44.926Z,9.70
2018-01-27T13:21:11.161Z,9.60
2018-01-27T13:23:37.398Z,9.40
2018-01-27T13:26:03.645Z,9.70
2018-01-27T13:28:29.795Z,9.93
2018-01-27T13:30:56.714Z,9.90
2018-01-27T13:33:23.686Z,9.40
2018-01-27T13:35:50.680Z,9.40
2018-01-27T13:38:16.916Z,9.10
2018-01-27T13:40:43.103Z,9.60
2018-01-27T13:43:10.062Z,9.13
2018-01-27T13:45:36.312Z,10.30
2018-01-27T13:48:02.597Z,9.80
2018-01-27T13:50:29.506Z,9.67
2018-01-27T13:52:55.713Z,9.73
2018-01-27T13:55:21.960Z,9.90
2018-01-27T13:57:48.114Z,10.37
2018-01-27T14:00:14.366Z,9.27
2018-01-27T14:02:40.612Z,8.90
2018-01-27T14:05:06.764Z,10.10
2018-01-27T14:07:32.920Z,9.10
2018-01-27T14:10:00.922Z,8.10
2018-01-27T14:12:27.123Z,9.50
2018-01-27T14:14:53.292Z,9.23
2018-01-27T14:17:20.962Z,9.77
2018-01-27T14:19:47.130Z,8.07
2018-01-27T14:22:13.368Z,9.00
2018-01-27T14:24:39.573Z,9.00
2018-01-27T14:27:05.776Z,9.83
2018-01-27T14:29:31.944Z,9.20
2018-01-27T14:31:58.175Z,8.53
2018-01-27T14:34:24.340Z,8.37
2018-01-27T14:36:50.468Z,8.33
2018-01-27T14:39:16.703Z,10.40
2018-01-27T14:41:42.930Z,7.87
2018-01-27T14:44:09.140Z,8.93
2018-01-27T14:46:35.318Z,9.10
2018-01-27T14:49:01.570Z,9.60
2018-01-27T14:51:28.532Z,9.90
2018-01-27T14:53:55.462Z,9.27
2018-01-27T14:56:22.465Z,9.80
2018-01-27T14:58:48.596Z,9.50
2018-01-27T15:01:14.762Z,9.37
2018-01-27T15:03:41.727Z,9.43
2018-01-27T15:06:08.657Z,9.47
2018-01-27T15:08:35.574Z,10.43
2018-01-27T15:11:01.796Z,13.30
2018-01-27T15:13:27.979Z,11.00
2018-01-27T15:15:54.128Z,12.55
2018-01-27T15:18:20.332Z,14.33
2018-01-27T15:20:46.565Z,11.33
2018-01-27T15:23:12.785Z,10.60
2018-01-27T15:25:39.671Z,10.70
2018-01-27T15:28:05.877Z,11.10
2018-01-27T15:30:32.059Z,11.80
2018-01-27T15:32:58.291Z,10.70
2018-01-27T15:35:25.915Z,11.37
2018-01-27T15:37:53.195Z,10.13
2018-01-27T15:40:20.692Z,13.80
2018-01-27T15:42:55.379Z,14.60
2018-01-27T15:45:21.602Z,15.13
2018-01-27T15:47:47.781Z,14.00
2018-01-27T15:50:14.010Z,15.90
2018-01-27T15:52:40.216Z,18.20
2018-01-27T15:55:06.373Z,20.80
2018-01-27T15:57:32.497Z,24.97
2018-01-27T15:59:58.675Z,24.20
2018-01-27T16:02:24.891Z,22.17
2018-01-27T16:04:51.031Z,19.00
2018-01-27T16:07:17.226Z,16.43
2018-01-27T16:09:43.439Z,18.57
2018-01-27T16:12:09.569Z,23.03
2018-01-27T16:14:36.122Z,19.57
2018-01-27T16:17:02.334Z,24.90
2018-01-27T16:19:28.517Z,29.90
2018-01-27T16:21:55.431Z,29.93
2018-01-27T16:24:21.671Z,22.67
2018-01-27T16:26:47.803Z,18.07
2018-01-27T16:29:13.960Z,17.40
2018-01-27T16:31:40.214Z,16.43
2018-01-27T16:34:06.377Z,17.10
2018-01-27T16:36:32.619Z,22.40
2018-01-27T16:38:59.521Z,29.70
2018-01-27T16:41:25.721Z,25.27
2018-01-27T16:43:51.909Z,35.30
2018-01-27T16:46:18.084Z,22.73
2018-01-27T16:48:44.390Z,34.77
2018-01-27T16:51:10.613Z,26.30
2018-01-27T16:53:37.508Z,22.77
2018-01-27T16:56:04.819Z,22.10
2018-01-27T16:58:31.017Z,22.30
2018-01-27T17:00:57.211Z,31.50
2018-01-27T17:03:23.418Z,32.50
2018-01-27T17:05:49.607Z,20.43
2018-01-27T17:08:15.772Z,23.57
2018-01-27T17:10:41.931Z,19.87
2018-01-27T17:13:08.100Z,26.17
2018-01-27T17:15:34.982Z,24.90
2018-01-27T17:18:01.239Z,25.30
2018-01-27T17:20:27.456Z,25.23
2018-01-27T17:22:53.673Z,36.27
2018-01-27T17:25:19.839Z,24.63
2018-01-27T17:27:46.033Z,23.50
2018-01-27T17:30:12.256Z,35.53
2018-01-27T17:32:38.452Z,23.40
2018-01-27T17:35:04.630Z,19.80
2018-01-27T17:37:30.842Z,16.30
2018-01-27T17:39:57.036Z,16.67
2018-01-27T17:42:23.982Z,16.80
2018-01-27T17:44:50.190Z,17.60
2018-01-27T17:47:17.155Z,17.23
2018-01-27T17:49:43.420Z,17.47
2018-01-27T17:52:09.621Z,16.60
2018-01-27T17:54:35.826Z,16.80
2018-01-27T17:57:02.800Z,17.67
2018-01-27T17:59:28.985Z,17.80
2018-01-27T18:01:55.201Z,18.90
2018-01-27T18:04:21.360Z,19.00
2018-01-27T18:06:48.363Z,18.40
2018-01-27T18:09:14.522Z,18.87
2018-01-27T18:11:41.437Z,16.80
2018-01-27T18:14:07.631Z,19.13
2018-01-27T18:16:33.853Z,17.77
2018-01-27T18:19:00.028Z,17.70
2018-01-27T18:21:26.982Z,19.43
2018-01-27T18:23:53.140Z,18.90
2018-01-27T18:26:20.070Z,18.60
2018-01-27T18:28:46.941Z,18.53
2018-01-27T18:31:13.106Z,17.57
2018-01-27T18:33:39.405Z,17.97
2018-01-27T18:36:05.606Z,18.27
2018-01-27T18:38:32.578Z,16.77
2018-01-27T18:40:58.782Z,16.80
2018-01-27T18:43:25.709Z,17.07
2018-01-27T18:45:52.668Z,17.43
2018-01-27T18:48:19.665Z,17.83
2018-01-27T18:50:45.891Z,16.73
2018-01-27T18:53:12.134Z,18.17
2018-01-27T18:55:39.084Z,18.10
2018-01-27T18:58:06.027Z,17.67
2018-01-27T19:00:32.205Z,17.27
2018-01-27T19:02:58.498Z,16.80
2018-01-27T19:05:24.728Z,17.67
2018-01-27T19:07:51.681Z,17.70
2018-01-27T19:10:18.719Z,16.63
2018-01-27T19:12:45.708Z,16.70
2018-01-27T19:15:11.944Z,16.90
2018-01-27T19:17:38.187Z,16.40
2018-01-27T19:20:04.380Z,17.63
2018-01-27T19:22:30.582Z,17.37
2018-01-27T19:24:57.498Z,16.53
2018-01-27T19:27:23.635Z,16.93
2018-01-27T19:29:49.803Z,17.10
2018-01-27T19:32:16.723Z,14.50
2018-01-27T19:34:43.033Z,15.23
2018-01-27T19:37:10.047Z,17.00
2018-01-27T19:39:36.356Z,17.77
2018-01-27T19:42:02.653Z,14.93
2018-01-27T19:44:28.949Z,14.73
2018-01-27T19:46:55.243Z,15.73
2018-01-27T19:49:21.553Z,15.40
2018-01-27T19:51:48.550Z,15.83
2018-01-27T19:54:14.943Z,15.70
2018-01-27T19:56:42.086Z,16.10
2018-01-27T19:59:13.424Z,14.40
2018-01-27T20:01:40.059Z,14.67
2018-01-27T20:04:06.329Z,14.90
2018-01-27T20:06:32.711Z,14.83
2018-01-27T20:09:18.726Z,17.17
2018-01-27T20:11:47.013Z,11.70
2018-01-27T20:14:14.273Z,11.47
2018-01-27T20:16:44.070Z,12.23
2018-01-27T20:19:10.857Z,12.70
2018-01-27T20:21:44.289Z,13.93
2018-01-27T20:24:10.612Z,13.73
2018-01-27T20:26:37.032Z,14.67
2018-01-27T20:29:04.328Z,14.70
2018-01-27T20:31:31.681Z,16.47
2018-01-27T20:33:58.981Z,16.10
2018-01-27T20:36:25.541Z,16.80
2018-01-27T20:38:52.206Z,17.20
2018-01-27T20:41:20.103Z,17.80
2018-01-27T20:43:46.716Z,18.10
2018-01-27T20:46:13.966Z,18.93
2018-01-27T20:48:40.518Z,27.73
2018-01-27T20:51:07.078Z,34.20
2018-01-27T20:53:33.596Z,39.50
2018-01-27T20:56:00.075Z,38.33
2018-01-27T20:58:26.592Z,41.53
2018-01-27T21:00:53.193Z,48.97
2018-01-27T21:03:20.127Z,36.30
2018-01-27T21:05:46.534Z,28.47
2018-01-27T21:08:13.122Z,24.77
2018-01-27T21:10:39.554Z,22.43
2018-01-27T21:13:06.051Z,22.57
2018-01-27T21:15:32.710Z,21.70
2018-01-27T21:17:59.286Z,21.33
2018-01-27T21:20:25.786Z,23.67
2018-01-27T21:22:52.176Z,28.67
2018-01-27T21:25:18.335Z,29.50
2018-01-27T21:27:45.394Z,27.07
2018-01-27T21:30:11.812Z,25.60
2018-01-27T21:32:39.062Z,26.17
2018-01-27T21:35:06.440Z,25.87
2018-01-27T21:37:32.673Z,28.57
2018-01-27T21:39:58.897Z,26.27
2018-01-27T21:42:25.119Z,24.40
2018-01-27T21:44:51.347Z,25.40
2018-01-27T21:47:17.515Z,27.60
2018-01-27T21:49:44.015Z,25.90
2018-01-27T21:52:10.283Z,28.23
2018-01-27T21:54:37.443Z,28.13
2018-01-27T21:57:03.894Z,26.80
2018-01-27T21:59:30.976Z,28.30
2018-01-27T22:01:57.244Z,28.33
2018-01-27T22:04:23.699Z,26.20
2018-01-27T22:06:49.974Z,23.93
2018-01-27T22:09:16.402Z,26.87
2018-01-27T22:11:42.612Z,26.70
2018-01-27T22:14:09.644Z,26.63
2018-01-27T22:16:36.648Z,27.13
2018-01-27T22:19:02.820Z,27.70
2018-01-27T22:21:29.059Z,28.00
2018-01-27T22:23:55.960Z,26.60
2018-01-27T22:26:22.158Z,26.33
2018-01-27T22:28:48.374Z,27.40
2018-01-27T22:31:14.558Z,25.47
2018-01-27T22:33:40.759Z,26.57
2018-01-27T22:36:06.944Z,25.00
2018-01-27T22:38:33.840Z,25.80
2018-01-27T22:41:00.008Z,26.47
2018-01-27T22:43:26.970Z,26.00
2018-01-27T22:45:53.162Z,25.73
2018-01-27T22:48:20.104Z,26.97
2018-01-27T22:50:46.999Z,26.33
2018-01-27T22:53:13.227Z,25.50
2018-01-27T22:55:39.394Z,26.97
2018-01-27T22:58:06.315Z,24.83
2018-01-27T23:00:32.586Z,25.60
2018-01-27T23:03:06.579Z,25.90
2018-01-27T23:05:33.030Z,27.37
2018-01-27T23:07:59.537Z,25.03
2018-01-27T23:10:26.189Z,25.97
2018-01-27T23:12:53.186Z,27.70
2018-01-27T23:15:19.569Z,27.60
2018-01-27T23:17:45.994Z,27.07
2018-01-27T23:20:12.239Z,28.83
2018-01-27T23:22:38.442Z,27.93
2018-01-27T23:25:04.612Z,28.43
2018-01-27T23:27:31.536Z,26.60
2018-01-27T23:29:57.755Z,27.10
2018-01-27T23:32:23.969Z,27.43
2018-01-27T23:34:50.262Z,28.50
2018-01-27T23:37:16.502Z,28.90
2018-01-27T23:39:42.747Z,26.47
2018-01-27T23:42:08.967Z,26.67
2018-01-27T23:44:35.196Z,25.60
2018-01-27T23:47:01.413Z,27.27
2018-01-27T23:49:27.661Z,28.33
2018-01-27T23:51:53.858Z,26.23
2018-01-27T23:54:20.096Z,29.50
2018-01-27T23:56:46.250Z,28.97
2018-01-27T23:59:12.502Z,27.67
